createdAt,value
2018-02-02T00:02:52.767Z,0.80
2018-02-02T00:23:28.053Z,0.85
2018-02-02T00:44:04.232Z,0.62
2018-02-02T01:04:40.744Z,0.51
2018-02-02T01:25:11.704Z,0.68
2018-02-02T01:45:44.827Z,1.45
2018-02-02T02:06:19.176Z,1.65
2018-02-02T02:26:55.655Z,1.91
2018-02-02T03:05:34.568Z,2.14
2018-02-02T03:26:10.806Z,2.31
2018-02-02T03:46:46.035Z,2.30
2018-02-02T04:07:22.277Z,2.44
2018-02-02T04:27:57.506Z,2.49
2018-02-02T04:48:28.361Z,2.56
2018-02-02T04:51:24.092Z,2.58
2018-02-02T05:11:59.668Z,2.60
2018-02-02T05:32:31.552Z,2.78
2018-02-02T05:53:09.116Z,2.67
2018-02-02T06:13:43.334Z,2.67
2018-02-02T06:34:13.517Z,2.64
2018-02-02T06:54:49.766Z,2.65
2018-02-02T07:15:24.171Z,2.59
2018-02-02T07:35:59.219Z,2.66
2018-02-02T07:56:31.081Z,2.84
2018-02-02T08:17:06.355Z,2.87
2018-02-02T08:37:42.546Z,2.98
2018-02-02T08:58:16.896Z,3.23
2018-02-02T09:18:54.369Z,3.57
2018-02-02T09:39:31.434Z,3.61
2018-02-02T10:00:08.901Z,3.89
2018-02-02T10:20:44.742Z,3.84
2018-02-02T10:41:20.336Z,3.90
2018-02-02T11:02:01.427Z,3.61
2018-02-02T11:22:41.616Z,3.51
2018-02-02T11:43:19.165Z,3.32
2018-02-02T12:03:56.148Z,3.35
2018-02-02T12:24:37.271Z,3.77
2018-02-02T12:45:12.836Z,4.01
2018-02-02T13:05:51.215Z,4.12
2018-02-02T13:26:24.304Z,4.09
2018-02-02T13:46:58.345Z,4.32
2018-02-02T14:07:39.934Z,4.45
2018-02-02T14:28:15.032Z,4.55
2018-02-02T14:48:50.406Z,4.69
2018-02-02T15:09:23.420Z,4.77
2018-02-02T15:29:57.775Z,4.70
2018-02-02T15:50:34.079Z,4.56
2018-02-02T16:11:07.090Z,4.56
2018-02-02T16:31:43.281Z,4.44
2018-02-02T16:52:15.785Z,4.38
2018-02-02T17:12:50.754Z,4.33
2018-02-02T17:33:26.956Z,4.25
2018-02-02T17:54:03.139Z,4.36
2018-02-02T18:14:38.412Z,4.21
2018-02-02T18:35:14.301Z,3.91
2018-02-02T18:55:49.885Z,3.67
2018-02-02T19:16:24.357Z,3.64
2018-02-02T19:36:58.273Z,3.51
2018-02-02T19:57:35.827Z,3.06
2018-02-02T20:18:12.816Z,3.07
2018-02-02T20:38:49.324Z,2.86
2018-02-02T20:59:23.537Z,2.11
2018-02-02T21:19:59.547Z,1.84
2018-02-02T21:40:33.595Z,1.72
2018-02-02T22:01:04.876Z,1.56
2018-02-02T22:21:42.436Z,1.80
2018-02-02T22:42:22.729Z,1.93
2018-02-02T23:02:55.601Z,1.96
2018-02-02T23:23:30.158Z,1.98
2018-02-02T23:44:06.143Z,2.01
